Time;durP1;ratioP1;P1;durP2;ratioP2;P2;SDS_P1;SDS_P2;PMS_P1;PMS_P2;Temp;Humidity;BMP_temperature;BMP_pressure;BME280_temperature;BME280_humidity;BME280_pressure;Samples;Min_cycle;Max_cycle;Signal;HPM_P1;HPM_P2
2023/06/08 00:01:35;;;;;;;;;15.75;15.00;;;;;23.92;31.85;101035.44;4975602;28;48671;-58
2023/06/08 00:04:05;;;;;;;;;15.50;15.00;;;;;23.90;31.93;101033.78;4960523;28;45429;-58
2023/06/08 00:06:33;;;;;;;;;16.00;16.00;;;;;23.86;32.12;101025.06;4959374;28;47453;-58
2023/06/08 00:08:59;;;;;;;;;16.25;16.25;;;;;23.82;32.01;101021.75;4960384;28;45441;-58
2023/06/08 00:11:25;;;;;;;;;12.00;12.00;;;;;23.82;31.89;101026.25;4960778;28;45512;-58
2023/06/08 00:13:50;;;;;;;;;13.25;12.75;;;;;23.78;32.29;101019.38;4960619;28;45458;-58
2023/06/08 00:16:16;;;;;;;;;16.25;15.50;;;;;23.74;32.18;101015.19;4960468;28;46011;-58
2023/06/08 00:18:41;;;;;;;;;17.00;17.00;;;;;23.73;32.14;101016.97;4962913;28;45307;-58
2023/06/08 00:21:07;;;;;;;;;15.00;13.75;;;;;23.72;32.44;101009.03;4971817;28;45524;-58
2023/06/08 00:23:32;;;;;;;;;16.00;14.75;;;;;23.69;32.63;101010.09;4960628;28;45248;-57
2023/06/08 00:25:58;;;;;;;;;14.75;14.25;;;;;23.63;31.98;101005.13;4960533;28;45862;-58
2023/06/08 00:28:24;;;;;;;;;13.50;12.75;;;;;23.65;31.97;101013.97;4960622;28;45188;-58
2023/06/08 00:30:49;;;;;;;;;16.00;14.00;;;;;23.54;32.28;101002.09;4977352;28;45171;-58
2023/06/08 00:33:14;;;;;;;;;12.25;12.25;;;;;23.60;32.29;101008.88;4960428;28;45447;-58
2023/06/08 00:35:40;;;;;;;;;13.25;12.25;;;;;23.58;32.49;101010.78;4960455;28;45256;-58
2023/06/08 00:38:05;;;;;;;;;16.00;14.00;;;;;23.56;32.50;101006.50;4958360;28;45359;-58
2023/06/08 00:40:31;;;;;;;;;14.50;13.75;;;;;23.52;32.50;101005.81;4960213;28;45224;-58
2023/06/08 00:42:56;;;;;;;;;15.25;14.00;;;;;23.50;32.61;101002.41;4959888;28;45319;-58
2023/06/08 00:45:21;;;;;;;;;15.75;14.00;;;;;23.48;32.49;101002.50;4958644;28;45982;-58
2023/06/08 00:47:47;;;;;;;;;17.75;16.75;;;;;23.44;32.63;100992.06;4958450;28;58169;-58
2023/06/08 00:50:16;;;;;;;;;14.50;14.00;;;;;23.44;32.61;100998.28;4960294;28;45339;-58
2023/06/08 00:52:42;;;;;;;;;16.25;16.25;;;;;23.41;32.67;100987.75;4974972;28;45666;-58
2023/06/08 00:55:08;;;;;;;;;16.50;16.50;;;;;23.40;32.88;100987.88;4958733;28;45327;-58
2023/06/08 00:57:36;;;;;;;;;19.50;18.50;;;;;23.37;32.80;100987.09;4958366;28;45249;-58
2023/06/08 01:00:04;;;;;;;;;16.50;16.25;;;;;23.33;32.92;100990.94;4958711;28;45556;-58
2023/06/08 01:02:31;;;;;;;;;16.25;16.00;;;;;23.32;32.71;100989.22;4959482;28;45548;-58
2023/06/08 01:04:56;;;;;;;;;16.50;15.00;;;;;23.31;32.85;100997.38;4958718;28;46457;-58
2023/06/08 01:07:44;;;;;;;;;15.50;15.25;;;;;23.26;33.37;100992.28;4959744;28;45350;-58
2023/06/08 01:10:18;;;;;;;;;15.50;14.75;;;;;23.24;33.21;100986.16;4975173;28;45578;-58
2023/06/08 01:13:36;;;;;;;;;14.25;14.25;;;;;23.05;33.21;100954.28;4959746;28;45256;-58
2023/06/08 01:16:04;;;;;;;;;20.50;18.00;;;;;23.18;33.27;100982.06;4957134;28;45402;-58
2023/06/08 01:18:38;;;;;;;;;14.50;13.50;;;;;23.16;33.29;100980.44;4961578;28;45275;-58
2023/06/08 01:21:24;;;;;;;;;16.75;16.00;;;;;23.15;33.54;100986.72;4974816;28;45425;-58
2023/06/08 01:24:14;;;;;;;;;16.50;16.00;;;;;23.12;33.72;100987.78;4963164;28;45322;-58
2023/06/08 01:26:42;;;;;;;;;17.00;16.75;;;;;23.09;33.59;100987.09;4962795;28;45284;-58
2023/06/08 01:29:09;;;;;;;;;20.00;18.00;;;;;23.09;33.45;100993.31;4968917;28;45423;-58
2023/06/08 01:31:36;;;;;;;;;18.25;16.75;;;;;23.07;33.59;100987.22;4974579;28;45363;-58
2023/06/08 01:34:03;;;;;;;;;22.50;18.00;;;;;23.07;33.56;100989.88;4963306;28;45410;-58
2023/06/08 01:36:39;;;;;;;;;17.00;16.25;;;;;23.07;33.68;100997.03;4962484;28;45486;-58
2023/06/08 01:39:07;;;;;;;;;15.50;15.50;;;;;23.06;33.75;100982.81;4961634;28;45308;-58
2023/06/08 01:41:43;;;;;;;;;13.00;12.00;;;;;23.04;33.76;100992.75;4962778;28;45343;-57
2023/06/08 01:44:12;;;;;;;;;17.50;17.50;;;;;23.00;33.54;100986.72;4962818;28;45511;-58
2023/06/08 01:46:37;;;;;;;;;14.00;14.00;;;;;22.97;33.81;100989.59;4961487;28;47421;-58
2023/06/08 01:49:05;;;;;;;;;14.25;12.00;;;;;22.95;33.57;100988.81;4962832;28;45283;-58
2023/06/08 01:51:32;;;;;;;;;14.00;14.00;;;;;22.97;33.80;100996.78;4962781;28;45308;-58
2023/06/08 01:54:06;;;;;;;;;17.50;17.00;;;;;22.95;33.80;100996.00;4961442;28;45437;-58
2023/06/08 01:56:34;;;;;;;;;18.50;18.00;;;;;22.94;33.97;100991.59;4962255;28;45312;-58
2023/06/08 01:58:59;;;;;;;;;18.75;18.50;;;;;22.92;33.89;100991.72;4977616;28;46030;-58
2023/06/08 02:01:25;;;;;;;;;19.00;18.00;;;;;22.91;33.93;100991.81;4962724;28;45455;-58
2023/06/08 02:03:50;;;;;;;;;19.50;17.25;;;;;22.88;33.74;100996.38;4962767;28;45509;-58
2023/06/08 02:06:16;;;;;;;;;18.75;17.50;;;;;22.85;34.06;100991.22;4962244;28;46094;-58
2023/06/08 02:08:42;;;;;;;;;14.25;14.25;;;;;22.83;34.42;100986.91;4962586;28;45323;-58
2023/06/08 02:11:08;;;;;;;;;15.25;15.25;;;;;22.83;33.88;100997.63;4962584;28;45490;-58
2023/06/08 02:13:37;;;;;;;;;18.50;17.25;;;;;22.82;33.95;100995.91;4962575;28;45236;-58
2023/06/08 02:16:02;;;;;;;;;16.25;15.00;;;;;22.82;34.09;100996.78;4960734;28;47299;-58
2023/06/08 02:18:28;;;;;;;;;20.75;18.25;;;;;22.80;33.96;100992.47;4962751;28;45381;-58
2023/06/08 02:20:53;;;;;;;;;15.50;14.25;;;;;22.78;34.56;100991.69;4975914;28;45271;-58
2023/06/08 02:23:18;;;;;;;;;21.00;18.75;;;;;22.73;34.29;100990.16;4962184;28;45576;-58
2023/06/08 02:25:45;;;;;;;;;18.00;18.00;;;;;22.70;34.01;100987.69;4962061;28;45373;-58
2023/06/08 02:28:10;;;;;;;;;20.00;17.00;;;;;22.67;34.55;100987.84;4962168;28;45419;-58
2023/06/08 02:30:35;;;;;;;;;15.50;15.50;;;;;22.62;34.64;100981.06;4979846;28;45588;-58
2023/06/08 02:33:01;;;;;;;;;18.00;17.50;;;;;22.57;34.32;100986.69;4962198;28;45323;-58
2023/06/08 02:35:26;;;;;;;;;21.50;18.25;;;;;22.54;34.61;100981.50;4961920;28;46104;-58
2023/06/08 02:37:51;;;;;;;;;21.75;19.75;;;;;22.50;34.64;100982.66;4944409;28;47644;-58
2023/06/08 02:40:17;;;;;;;;;17.00;15.75;;;;;22.48;34.51;100987.28;4961694;28;49068;-58
2023/06/08 02:42:42;;;;;;;;;20.75;19.25;;;;;22.45;34.81;100982.09;4962106;28;45308;-58
2023/06/08 02:45:08;;;;;;;;;19.75;19.75;;;;;22.42;34.80;100987.63;4961740;28;46438;-58
2023/06/08 02:47:34;;;;;;;;;17.00;17.00;;;;;22.37;35.13;100974.53;4962212;28;45323;-58
2023/06/08 02:49:59;;;;;;;;;20.00;19.50;;;;;22.35;35.13;100982.63;4960420;28;45245;-58
2023/06/08 02:52:25;;;;;;;;;18.00;18.00;;;;;22.29;35.32;100974.97;4961820;28;45511;-58
2023/06/08 02:54:50;;;;;;;;;21.00;20.25;;;;;22.28;34.82;100975.06;4961536;28;46143;-58
2023/06/08 02:57:15;;;;;;;;;23.75;20.75;;;;;22.21;35.19;100975.41;4961942;28;45274;-58
2023/06/08 02:59:41;;;;;;;;;20.25;17.75;;;;;22.22;35.37;100979.78;4961866;28;45152;-58
2023/06/08 03:02:07;;;;;;;;;21.50;19.25;;;;;22.21;35.55;100979.91;4961789;28;45228;-58
2023/06/08 03:04:33;;;;;;;;;24.25;21.75;;;;;22.20;34.98;100978.16;4961494;28;46335;-58
2023/06/08 03:06:58;;;;;;;;;21.25;19.75;;;;;22.17;34.84;100976.53;4961415;28;45421;-58
2023/06/08 03:09:28;;;;;;;;;23.00;23.00;;;;;22.14;35.54;100973.16;4961738;28;45366;-58
2023/06/08 03:11:53;;;;;;;;;18.75;18.75;;;;;22.12;35.56;100972.41;4961556;28;45188;-58
2023/06/08 03:14:19;;;;;;;;;25.50;22.00;;;;;22.12;35.50;100969.75;4961311;28;45341;-58
2023/06/08 03:16:48;;;;;;;;;23.00;22.50;;;;;22.07;35.52;100965.53;4961370;28;45485;-58
2023/06/08 03:19:14;;;;;;;;;22.50;20.75;;;;;22.08;35.51;100969.91;4967951;28;45267;-58
2023/06/08 03:21:41;;;;;;;;;21.50;21.25;;;;;22.05;35.75;100967.44;4968141;28;45422;-58
2023/06/08 03:24:08;;;;;;;;;23.75;21.50;;;;;22.03;35.92;100966.66;4960302;28;46991;-58
2023/06/08 03:26:33;;;;;;;;;19.50;18.75;;;;;22.02;35.72;100972.94;4961207;28;45236;-58
2023/06/08 03:28:58;;;;;;;;;25.00;24.00;;;;;22.00;35.23;100977.53;4965307;28;45177;-58
2023/06/08 03:31:24;;;;;;;;;23.00;22.00;;;;;22.01;35.35;100970.38;4974695;28;45502;-58
2023/06/08 03:33:49;;;;;;;;;25.00;25.00;;;;;21.99;35.69;100975.81;4961207;28;45329;-58
2023/06/08 03:36:15;;;;;;;;;22.25;21.00;;;;;21.96;35.65;100970.66;4961065;28;45477;-58
2023/06/08 03:38:40;;;;;;;;;22.25;22.00;;;;;21.96;35.81;100967.09;4961477;28;45228;-58
2023/06/08 03:41:06;;;;;;;;;22.00;21.00;;;;;21.95;35.56;100968.94;4960892;28;45264;-58
2023/06/08 03:43:31;;;;;;;;;18.25;17.50;;;;;21.94;35.81;100967.19;4961109;28;45319;-58
2023/06/08 03:45:56;;;;;;;;;23.00;20.50;;;;;21.92;35.66;100975.31;4961224;28;45375;-58
2023/06/08 03:48:22;;;;;;;;;24.75;23.25;;;;;21.91;35.71;100968.25;4976218;28;45190;-58
2023/06/08 03:50:47;;;;;;;;;29.25;27.50;;;;;21.89;36.21;100963.94;4961097;28;45542;-58
2023/06/08 03:53:13;;;;;;;;;25.75;25.25;;;;;21.88;36.05;100964.88;4960707;28;46383;-58
2023/06/08 03:55:38;;;;;;;;;26.25;24.50;;;;;21.86;36.14;100966.78;4961066;28;45347;-58
2023/06/08 03:58:04;;;;;;;;;24.25;21.00;;;;;21.82;36.30;100963.41;4961018;28;45339;-58
2023/06/08 04:00:32;;;;;;;;;25.50;23.50;;;;;21.80;36.00;100964.44;4961060;28;45508;-58
2023/06/08 04:02:57;;;;;;;;;27.25;22.00;;;;;21.78;36.35;100961.88;4960822;28;45378;-58
2023/06/08 04:05:23;;;;;;;;;27.75;22.75;;;;;21.74;36.34;100966.53;4960718;28;45248;-58
2023/06/08 04:07:50;;;;;;;;;21.00;20.50;;;;;21.71;36.55;100961.38;4959547;28;45265;-58
2023/06/08 04:10:16;;;;;;;;;27.00;22.25;;;;;21.71;36.66;100963.16;4960771;28;45232;-58
2023/06/08 04:12:41;;;;;;;;;22.75;22.00;;;;;21.68;36.04;100966.88;4960657;28;46085;-58
2023/06/08 04:15:08;;;;;;;;;22.50;21.50;;;;;21.66;36.71;100958.09;4960747;28;45232;-58
2023/06/08 04:17:33;;;;;;;;;24.75;22.75;;;;;21.63;36.07;100955.59;4960640;28;45330;-58
2023/06/08 04:19:58;;;;;;;;;22.50;22.50;;;;;21.57;36.81;100951.47;4972858;28;58437;-59
2023/06/08 04:22:23;;;;;;;;;25.50;23.00;;;;;21.58;36.36;100955.00;4961210;28;46558;-58
2023/06/08 04:24:49;;;;;;;;;24.75;22.25;;;;;21.53;36.43;100951.69;4960631;28;45310;-58
2023/06/08 04:27:16;;;;;;;;;25.75;25.75;;;;;21.52;36.79;100945.50;4960688;28;45441;-58
2023/06/08 04:29:41;;;;;;;;;27.75;23.50;;;;;21.49;36.59;100944.81;4975056;28;45427;-58
2023/06/08 04:32:07;;;;;;;;;25.00;22.75;;;;;21.48;36.94;100948.41;4961834;28;45331;-58
2023/06/08 04:34:33;;;;;;;;;24.25;23.50;;;;;21.39;36.71;100934.63;4960561;28;45521;-59
2023/06/08 04:36:58;;;;;;;;;26.50;24.50;;;;;21.45;36.50;100952.13;4960385;28;45247;-58
2023/06/08 04:39:24;;;;;;;;;23.75;21.75;;;;;21.42;36.76;100950.50;4960518;28;45152;-58
2023/06/08 04:41:49;;;;;;;;;21.75;20.75;;;;;21.41;37.08;100955.94;4960255;28;46230;-59
2023/06/08 04:44:18;;;;;;;;;25.00;23.50;;;;;21.37;36.72;100946.34;4960509;28;45257;-58
2023/06/08 04:46:44;;;;;;;;;23.50;23.50;;;;;21.33;36.63;100951.00;4960474;28;45272;-59
2023/06/08 04:49:10;;;;;;;;;31.25;29.50;;;;;21.36;37.23;100958.84;4960414;28;45399;-59
2023/06/08 04:51:39;;;;;;;;;25.75;24.00;;;;;21.34;36.82;100950.06;4960051;28;46593;-59
2023/06/08 04:54:05;;;;;;;;;25.25;23.00;;;;;21.33;36.81;100953.66;4962913;28;45244;-58
2023/06/08 04:56:33;;;;;;;;;28.75;25.75;;;;;21.32;36.96;100957.31;4963650;28;45312;-59
2023/06/08 04:58:59;;;;;;;;;26.75;25.00;;;;;21.30;37.28;100951.19;4963548;28;45318;-59
2023/06/08 05:01:24;;;;;;;;;28.25;26.50;;;;;21.29;37.34;100949.44;4963708;28;45342;-59
2023/06/08 05:03:50;;;;;;;;;21.25;21.25;;;;;21.26;37.58;100949.63;4963597;28;45369;-58
2023/06/08 05:06:15;;;;;;;;;31.00;29.25;;;;;21.25;37.25;100955.94;4963534;28;45298;-59
2023/06/08 05:08:41;;;;;;;;;29.00;26.75;;;;;21.24;37.25;100952.41;4963511;28;45243;-58
2023/06/08 05:11:06;;;;;;;;;31.25;25.75;;;;;21.25;37.69;100961.28;4962114;28;45394;-58
2023/06/08 05:13:32;;;;;;;;;31.25;28.00;;;;;21.24;37.35;100963.09;4978341;28;45518;-58
2023/06/08 05:15:58;;;;;;;;;28.00;28.00;;;;;21.24;37.61;100957.75;4963422;28;45294;-59
2023/06/08 05:18:26;;;;;;;;;27.25;25.50;;;;;21.23;37.18;100958.69;4963260;28;45263;-59
2023/06/08 05:20:51;;;;;;;;;28.75;26.50;;;;;21.21;37.19;100951.72;4976217;28;46048;-59
2023/06/08 05:23:17;;;;;;;;;29.50;26.00;;;;;21.22;37.51;100959.63;4963373;28;45271;-59
2023/06/08 05:25:42;;;;;;;;;34.00;29.50;;;;;21.22;37.92;100959.63;4963129;28;45463;-59
2023/06/08 05:28:08;;;;;;;;;32.75;27.50;;;;;21.21;37.97;100962.41;4963384;28;45313;-58
2023/06/08 05:30:33;;;;;;;;;31.50;29.00;;;;;21.20;37.93;100948.16;4980940;28;45382;-58
2023/06/08 05:33:00;;;;;;;;;29.50;25.75;;;;;21.20;37.98;100960.66;4963093;28;45276;-58
2023/06/08 05:35:26;;;;;;;;;28.25;27.50;;;;;21.13;38.11;100944.13;4963075;28;45366;-60
2023/06/08 05:37:52;;;;;;;;;64.25;50.50;;;;;21.17;37.53;100950.13;4962752;28;45323;-57
2023/06/08 05:40:18;;;;;;;;;29.25;28.00;;;;;21.16;38.24;100949.28;4977721;28;47295;-59
2023/06/08 05:42:43;;;;;;;;;33.50;30.50;;;;;21.18;37.96;100952.75;4962944;28;45247;-59
2023/06/08 05:45:09;;;;;;;;;27.75;26.25;;;;;21.20;38.20;100949.97;4977865;28;45272;-59
2023/06/08 05:47:34;;;;;;;;;30.75;30.00;;;;;21.18;38.52;100947.41;4962880;28;45401;-59
2023/06/08 05:50:00;;;;;;;;;37.75;30.50;;;;;21.22;38.16;100953.41;4962602;28;46970;-59
2023/06/08 05:52:25;;;;;;;;;36.00;32.75;;;;;21.23;38.02;100949.78;4962603;28;45232;-59
2023/06/08 05:54:51;;;;;;;;;36.00;31.75;;;;;21.21;38.54;100941.88;4962403;28;45390;-59
2023/06/08 05:57:16;;;;;;;;;37.50;32.25;;;;;21.22;38.41;100945.38;4961540;28;45549;-59
2023/06/08 05:59:42;;;;;;;;;35.00;31.25;;;;;21.23;38.64;100944.44;4962396;28;46438;-59
2023/06/08 06:02:07;;;;;;;;;31.00;30.00;;;;;21.22;38.67;100948.06;4962590;28;45270;-59
2023/06/08 06:04:34;;;;;;;;;34.50;32.50;;;;;21.22;38.55;100942.72;4961316;28;45341;-59
2023/06/08 06:06:59;;;;;;;;;34.25;31.50;;;;;21.24;38.26;100944.38;4962306;28;45362;-59
2023/06/08 06:09:25;;;;;;;;;37.75;30.75;;;;;21.24;38.83;100951.53;4962307;28;46022;-59
2023/06/08 06:11:50;;;;;;;;;30.25;27.75;;;;;21.24;38.74;100947.06;4962411;28;45880;-59
2023/06/08 06:14:15;;;;;;;;;33.25;30.50;;;;;21.22;38.72;100938.25;4962532;28;45567;-59
2023/06/08 06:16:41;;;;;;;;;38.00;32.75;;;;;21.22;38.40;100945.38;4962191;28;45354;-59
2023/06/08 06:19:07;;;;;;;;;35.00;31.00;;;;;21.24;38.84;100940.84;4967928;28;46262;-57
2023/06/08 06:21:32;;;;;;;;;33.50;30.50;;;;;21.24;39.10;100943.50;4970132;28;45317;-58
2023/06/08 06:23:57;;;;;;;;;36.00;29.50;;;;;21.26;39.23;100944.28;4962182;28;45618;-59
2023/06/08 06:26:22;;;;;;;;;41.00;35.00;;;;;21.26;38.90;100939.81;4960793;28;45513;-57
2023/06/08 06:28:48;;;;;;;;;39.25;31.75;;;;;21.27;38.91;100941.53;4963364;28;45160;-58
2023/06/08 06:31:13;;;;;;;;;37.00;34.00;;;;;21.30;39.39;100934.31;4978350;28;45208;-57
2023/06/08 06:33:38;;;;;;;;;38.00;33.25;;;;;21.32;38.94;100943.97;4963536;28;45346;-57
2023/06/08 06:36:05;;;;;;;;;38.25;32.75;;;;;21.32;39.30;100946.63;4969713;28;45511;-57
2023/06/08 06:38:31;;;;;;;;;41.00;35.00;;;;;21.35;38.85;100949.13;4960064;28;46108;-57
2023/06/08 06:40:56;;;;;;;;;40.75;35.25;;;;;21.37;39.47;100941.88;4960987;28;45443;-57
2023/06/08 06:43:22;;;;;;;;;39.00;34.50;;;;;21.37;39.42;100935.66;4962111;28;45210;-57
2023/06/08 06:45:51;;;;;;;;;34.50;30.50;;;;;21.39;39.23;100939.97;4960439;28;45611;-57
2023/06/08 06:48:19;;;;;;;;;38.00;32.75;;;;;21.42;38.95;100944.28;4960679;28;48591;-57
2023/06/08 06:50:44;;;;;;;;;41.25;32.75;;;;;21.43;39.39;100940.66;4944451;28;45348;-57
2023/06/08 06:53:10;;;;;;;;;45.75;36.50;;;;;21.46;39.35;100932.47;4960718;28;45355;-57
2023/06/08 06:55:35;;;;;;;;;36.00;31.75;;;;;21.49;39.09;100934.13;4961915;28;45294;-58
2023/06/08 06:58:02;;;;;;;;;40.50;36.00;;;;;21.50;39.38;100934.03;4961594;28;45843;-58
2023/06/08 07:00:32;;;;;;;;;39.00;35.00;;;;;21.51;39.35;100933.06;4961841;28;45367;-58
2023/06/08 07:02:58;;;;;;;;;42.25;35.50;;;;;21.57;39.77;100939.91;4961914;28;45358;-58
2023/06/08 07:05:23;;;;;;;;;38.25;33.75;;;;;21.58;39.89;100938.94;4961972;28;45311;-58
2023/06/08 07:07:48;;;;;;;;;39.00;34.25;;;;;21.63;39.44;100936.88;4961595;28;45424;-58
2023/06/08 07:10:14;;;;;;;;;40.00;36.00;;;;;21.64;39.42;100935.94;4961688;28;45401;-57
2023/06/08 07:12:39;;;;;;;;;37.25;31.75;;;;;21.66;39.46;100931.38;4960709;28;45242;-57
2023/06/08 07:15:05;;;;;;;;;36.50;33.25;;;;;21.71;40.06;100934.63;4961411;28;45220;-57
2023/06/08 07:17:30;;;;;;;;;40.75;35.50;;;;;21.74;39.91;100930.91;4960879;28;46092;-57
2023/06/08 07:19:57;;;;;;;;;41.25;35.75;;;;;21.77;39.95;100936.06;4973479;28;55650;-57
2023/06/08 07:22:22;;;;;;;;;39.75;34.75;;;;;21.80;39.53;100927.00;4962373;28;45434;-57
2023/06/08 07:24:48;;;;;;;;;43.25;36.50;;;;;21.83;39.77;100926.84;4961399;28;45274;-57
2023/06/08 07:27:13;;;;;;;;;42.00;35.50;;;;;21.85;40.25;100925.81;4976257;28;47572;-57
2023/06/08 07:29:38;;;;;;;;;38.25;34.00;;;;;21.88;39.83;100917.59;4976201;28;45400;-57
2023/06/08 07:32:04;;;;;;;;;42.00;35.50;;;;;21.92;39.95;100923.63;4963514;28;45430;-57
2023/06/08 07:34:31;;;;;;;;;34.75;31.50;;;;;21.95;39.96;100918.09;4961348;28;45424;-57
2023/06/08 07:36:56;;;;;;;;;40.75;34.00;;;;;21.98;40.02;100919.72;4959773;28;48073;-57
2023/06/08 07:39:21;;;;;;;;;39.75;32.00;;;;;22.02;39.65;100921.25;4961341;28;45342;-57
2023/06/08 07:41:47;;;;;;;;;41.00;36.50;;;;;22.05;40.39;100913.91;4959970;28;45467;-57
2023/06/08 07:44:12;;;;;;;;;40.50;34.50;;;;;22.08;40.32;100911.03;4961331;28;45302;-57
2023/06/08 07:46:37;;;;;;;;;46.00;35.00;;;;;22.11;39.80;100909.16;4961031;28;45330;-57
2023/06/08 07:49:03;;;;;;;;;44.75;33.00;;;;;22.14;40.20;100909.81;4961153;28;45228;-57
2023/06/08 07:51:28;;;;;;;;;40.50;34.50;;;;;22.21;39.88;100915.66;4961037;28;45347;-57
2023/06/08 07:53:53;;;;;;;;;42.00;35.50;;;;;22.26;39.97;100918.06;4976212;28;45866;-58
2023/06/08 07:56:19;;;;;;;;;38.00;32.75;;;;;22.31;40.22;100921.31;4960805;28;46321;-57
2023/06/08 07:58:45;;;;;;;;;42.75;35.50;;;;;22.34;40.38;100913.09;4959686;28;45298;-57
2023/06/08 08:01:10;;;;;;;;;40.50;35.00;;;;;22.34;40.26;100897.03;4961069;28;45222;-58
2023/06/08 08:03:39;;;;;;;;;40.00;34.25;;;;;22.42;40.30;100901.97;4961094;28;45351;-58
2023/06/08 08:06:06;;;;;;;;;39.25;33.50;;;;;22.46;40.68;100909.69;4959362;28;46209;-57
2023/06/08 08:08:31;;;;;;;;;36.25;32.25;;;;;22.51;40.55;100909.44;4959663;28;45336;-57
2023/06/08 08:10:56;;;;;;;;;39.50;33.50;;;;;22.54;40.53;100910.09;4960985;28;45418;-57
2023/06/08 08:13:22;;;;;;;;;37.50;32.25;;;;;22.54;40.19;100895.84;4960835;28;45928;-57
2023/06/08 08:15:48;;;;;;;;;37.75;32.00;;;;;22.63;40.35;100903.31;4959105;28;45997;-57
2023/06/08 08:18:13;;;;;;;;;40.75;34.00;;;;;22.62;40.74;100890.88;4959574;28;45271;-58
2023/06/08 08:20:39;;;;;;;;;41.50;35.75;;;;;22.74;40.62;100905.28;4974453;28;45216;-58
2023/06/08 08:23:05;;;;;;;;;39.00;33.75;;;;;22.78;40.76;100901.50;4960773;28;45505;-58
2023/06/08 08:25:31;;;;;;;;;39.00;34.50;;;;;22.84;40.30;100900.22;4975434;28;48188;-58
2023/06/08 08:27:56;;;;;;;;;37.75;33.25;;;;;22.86;40.57;100892.97;4961603;28;45168;-58
2023/06/08 08:30:22;;;;;;;;;41.75;33.25;;;;;22.91;40.67;100890.00;4983263;28;45314;-58
2023/06/08 08:32:47;;;;;;;;;39.50;33.50;;;;;22.99;40.59;100895.72;4963936;28;51356;-58
2023/06/08 08:35:12;;;;;;;;;38.50;33.00;;;;;23.03;40.52;100898.09;4964003;28;45482;-58
2023/06/08 08:37:38;;;;;;;;;38.00;32.50;;;;;23.08;40.62;100895.13;4963855;28;45382;-58
2023/06/08 08:40:05;;;;;;;;;37.75;34.00;;;;;23.14;40.70;100891.19;4962826;28;45316;-58
2023/06/08 08:42:33;;;;;;;;;39.75;34.25;;;;;23.16;40.36;100889.31;4964094;28;45456;-58
2023/06/08 08:45:00;;;;;;;;;37.50;33.25;;;;;23.24;40.68;100884.28;4962517;28;47650;-58
2023/06/08 08:47:29;;;;;;;;;35.50;31.75;;;;;23.29;40.68;100881.31;4963914;28;45255;-58
2023/06/08 08:50:03;;;;;;;;;35.00;30.50;;;;;23.35;40.57;100881.75;4963818;28;45318;-58
2023/06/08 08:52:33;;;;;;;;;36.50;32.50;;;;;23.39;40.80;100882.44;4963695;28;45335;-58
2023/06/08 08:55:00;;;;;;;;;33.25;32.25;;;;;23.45;40.73;100883.84;4963361;28;45297;-58
2023/06/08 08:57:30;;;;;;;;;36.50;32.00;;;;;23.49;40.67;100872.81;4963754;28;45489;-58
2023/06/08 08:59:56;;;;;;;;;43.50;35.25;;;;;23.56;40.64;100875.97;4963686;28;45394;-58
2023/06/08 09:02:22;;;;;;;;;38.75;34.00;;;;;23.60;40.71;100874.78;4963728;28;45333;-58
2023/06/08 09:04:47;;;;;;;;;36.25;32.75;;;;;23.64;40.64;100875.44;4963574;28;46292;-58
2023/06/08 09:07:20;;;;;;;;;40.50;34.50;;;;;23.70;40.78;100873.19;4945937;28;45348;-58
2023/06/08 09:10:18;;;;;;;;;31.75;30.25;;;;;23.76;40.53;100869.25;4978603;28;45263;-58
2023/06/08 09:12:51;;;;;;;;;36.75;32.75;;;;;23.81;40.56;100868.91;4963431;28;45460;-58
2023/06/08 09:15:28;;;;;;;;;38.25;33.50;;;;;23.86;40.61;100867.66;4963077;28;45624;-58
2023/06/08 09:18:02;;;;;;;;;33.25;31.25;;;;;23.92;40.58;100871.75;4978454;28;45259;-58
2023/06/08 09:20:31;;;;;;;;;32.00;31.00;;;;;23.97;40.63;100866.94;4995006;28;45496;-58
2023/06/08 09:22:57;;;;;;;;;35.75;32.75;;;;;24.01;40.52;100852.34;4982674;28;45176;-58
2023/06/08 09:25:37;;;;;;;;;30.25;29.25;;;;;24.09;40.55;100859.88;4981192;28;45461;-58
2023/06/08 09:28:24;;;;;;;;;36.50;32.25;;;;;24.15;40.41;100858.56;4982706;28;45354;-58
2023/06/08 09:30:50;;;;;;;;;34.00;30.50;;;;;24.20;40.34;100859.13;4982953;28;45257;-58
2023/06/08 09:33:25;;;;;;;;;34.50;31.25;;;;;24.25;40.84;100861.47;4963250;28;45169;-57
2023/06/08 09:35:57;;;;;;;;;36.25;32.00;;;;;24.32;40.53;100860.09;4962967;28;47149;-58
2023/06/08 09:38:25;;;;;;;;;34.50;32.50;;;;;24.38;40.23;100853.41;4962731;28;45267;-58
2023/06/08 09:40:51;;;;;;;;;32.75;31.50;;;;;24.43;40.45;100856.66;4961847;28;45554;-58
2023/06/08 09:43:31;;;;;;;;;33.25;31.25;;;;;24.50;40.40;100849.84;4963191;28;45181;-58
2023/06/08 09:45:56;;;;;;;;;30.25;29.50;;;;;24.55;40.13;100849.53;4963051;28;46293;-58
2023/06/08 09:48:21;;;;;;;;;34.25;31.25;;;;;24.62;40.64;100854.34;4962862;28;45306;-58
2023/06/08 09:50:47;;;;;;;;;33.00;30.25;;;;;24.68;40.35;100853.09;4962581;28;48879;-58
2023/06/08 09:53:13;;;;;;;;;33.50;31.25;;;;;24.75;40.18;100858.88;4961641;28;45596;-57
2023/06/08 09:55:41;;;;;;;;;34.50;29.00;;;;;24.79;40.49;100849.63;4962695;28;45360;-58
2023/06/08 09:58:06;;;;;;;;;31.75;28.50;;;;;24.87;40.05;100844.56;4962767;28;45165;-58
2023/06/08 10:00:36;;;;;;;;;33.00;31.00;;;;;24.94;40.22;100847.66;4962855;28;45501;-58
2023/06/08 10:03:16;;;;;;;;;27.25;25.25;;;;;25.02;39.88;100847.94;4962738;28;45379;-58
2023/06/08 10:05:45;;;;;;;;;27.75;27.75;;;;;25.09;39.86;100846.53;4962406;28;45722;-58
2023/06/08 10:08:15;;;;;;;;;31.50;29.75;;;;;25.16;39.52;100838.88;4961583;28;45288;-58
2023/06/08 10:10:41;;;;;;;;;27.50;26.50;;;;;25.24;39.82;100833.75;4962550;28;45379;-58
2023/06/08 10:13:10;;;;;;;;;27.50;25.25;;;;;25.34;39.68;100843.84;4961315;28;45440;-58
2023/06/08 10:15:36;;;;;;;;;23.00;21.25;;;;;25.40;39.68;100836.19;4962137;28;45412;-58
2023/06/08 10:18:03;;;;;;;;;25.50;23.75;;;;;25.48;39.65;100832.91;4962516;28;45523;-58
2023/06/08 10:20:29;;;;;;;;;23.00;22.00;;;;;25.54;39.11;100824.38;4975645;28;45235;-57
2023/06/08 10:22:58;;;;;;;;;22.75;19.50;;;;;25.67;39.58;100826.13;4962267;28;45253;-57
2023/06/08 10:25:28;;;;;;;;;26.50;23.50;;;;;25.77;39.29;100840.59;4962016;28;46314;-57
2023/06/08 10:27:53;;;;;;;;;24.50;23.50;;;;;25.87;38.98;100838.91;4962552;28;45465;-57
2023/06/08 10:30:40;;;;;;;;;25.50;24.50;;;;;25.99;38.93;100831.72;4979542;28;45598;-57
2023/06/08 10:33:08;;;;;;;;;26.50;26.50;;;;;26.14;38.72;100827.00;4977229;28;45346;-57
2023/06/08 10:35:35;;;;;;;;;25.50;24.00;;;;;26.34;39.24;100819.16;4962033;28;46085;-57
2023/06/08 10:38:14;;;;;;;;;23.75;23.25;;;;;26.64;39.44;100814.97;4961951;28;45286;-57
2023/06/08 10:40:50;;;;;;;;;25.50;23.75;;;;;26.98;39.19;100814.94;4962191;28;45321;-58
2023/06/08 10:43:16;;;;;;;;;26.25;21.75;;;;;27.40;39.34;100812.38;4962342;28;45180;-57
2023/06/08 10:45:44;;;;;;;;;26.25;24.25;;;;;27.84;39.29;100807.72;4962083;28;45312;-57
2023/06/08 10:48:14;;;;;;;;;22.00;21.50;;;;;28.32;39.67;100808.97;4961036;28;45417;-57
2023/06/08 10:50:42;;;;;;;;;28.00;24.50;;;;;28.89;39.28;100813.03;4961169;28;45369;-57
2023/06/08 10:53:08;;;;;;;;;25.50;25.00;;;;;29.43;39.25;100795.41;4961908;28;45232;-57
2023/06/08 10:55:34;;;;;;;;;26.00;23.50;;;;;29.97;39.08;100792.22;4961960;28;46697;-57
2023/06/08 10:58:15;;;;;;;;;25.00;24.50;;;;;30.56;39.22;100803.69;4961712;28;45346;-58
2023/06/08 11:00:44;;;;;;;;;23.50;22.50;;;;;31.14;38.57;100798.06;4962055;28;45267;-57
2023/06/08 11:03:12;;;;;;;;;21.25;21.00;;;;;31.72;37.89;100793.97;4961835;28;45439;-57
2023/06/08 11:05:40;;;;;;;;;26.25;25.00;;;;;32.29;37.80;100792.63;4961385;28;46184;-58
2023/06/08 11:08:07;;;;;;;;;25.50;23.00;;;;;32.82;37.77;100793.34;4976735;28;45706;-57
2023/06/08 11:10:34;;;;;;;;;30.25;26.75;;;;;33.29;36.90;100790.03;4960339;28;45384;-57